sensor_id;sensor_type;location;lat;lon;timestamp;P1;durP1;ratioP1;P2;durP2;ratioP2
22963;SDS011;11648;49.306;6.934;2023-03-31T00:02:00;9.63;;;1.43;;
22963;SDS011;11648;49.306;6.934;2023-03-31T00:04:32;11.00;;;1.40;;
22963;SDS011;11648;49.306;6.934;2023-03-31T00:06:59;6.77;;;1.67;;
22963;SDS011;11648;49.306;6.934;2023-03-31T00:09:26;9.00;;;1.40;;
22963;SDS011;11648;49.306;6.934;2023-03-31T00:11:55;11.40;;;1.53;;
22963;SDS011;11648;49.306;6.934;2023-03-31T00:14:22;11.47;;;1.67;;
22963;SDS011;11648;49.306;6.934;2023-03-31T00:16:48;9.63;;;1.33;;
22963;SDS011;11648;49.306;6.934;2023-03-31T00:19:16;7.87;;;1.50;;
22963;SDS011;11648;49.306;6.934;2023-03-31T00:21:46;5.73;;;1.30;;
22963;SDS011;11648;49.306;6.934;2023-03-31T00:24:14;8.27;;;1.63;;
22963;SDS011;11648;49.306;6.934;2023-03-31T00:26:42;7.37;;;1.40;;
22963;SDS011;11648;49.306;6.934;2023-03-31T00:29:10;7.20;;;1.70;;
22963;SDS011;11648;49.306;6.934;2023-03-31T00:31:38;5.63;;;1.47;;
22963;SDS011;11648;49.306;6.934;2023-03-31T00:34:05;6.10;;;1.10;;
22963;SDS011;11648;49.306;6.934;2023-03-31T00:36:33;6.77;;;1.10;;
22963;SDS011;11648;49.306;6.934;2023-03-31T00:39:11;8.20;;;1.30;;
22963;SDS011;11648;49.306;6.934;2023-03-31T00:41:40;8.87;;;1.60;;
22963;SDS011;11648;49.306;6.934;2023-03-31T00:44:14;8.27;;;1.27;;
22963;SDS011;11648;49.306;6.934;2023-03-31T00:49:32;8.23;;;1.67;;
22963;SDS011;11648;49.306;6.934;2023-03-31T00:52:06;7.80;;;1.20;;
22963;SDS011;11648;49.306;6.934;2023-03-31T00:54:36;5.47;;;1.20;;
22963;SDS011;11648;49.306;6.934;2023-03-31T00:57:04;7.63;;;1.33;;
22963;SDS011;11648;49.306;6.934;2023-03-31T00:59:35;7.17;;;1.20;;
22963;SDS011;11648;49.306;6.934;2023-03-31T01:02:04;6.43;;;1.40;;
22963;SDS011;11648;49.306;6.934;2023-03-31T01:04:32;8.20;;;1.20;;
22963;SDS011;11648;49.306;6.934;2023-03-31T01:07:06;8.77;;;1.20;;
22963;SDS011;11648;49.306;6.934;2023-03-31T01:09:39;7.53;;;1.40;;
22963;SDS011;11648;49.306;6.934;2023-03-31T01:12:07;7.40;;;1.17;;
22963;SDS011;11648;49.306;6.934;2023-03-31T01:14:36;7.87;;;1.47;;
22963;SDS011;11648;49.306;6.934;2023-03-31T01:17:04;7.33;;;1.30;;
22963;SDS011;11648;49.306;6.934;2023-03-31T01:23:01;6.17;;;1.37;;
22963;SDS011;11648;49.306;6.934;2023-03-31T01:31:26;9.60;;;1.43;;
22963;SDS011;11648;49.306;6.934;2023-03-31T01:34:25;9.23;;;1.33;;
22963;SDS011;11648;49.306;6.934;2023-03-31T01:48:21;7.77;;;1.53;;
22963;SDS011;11648;49.306;6.934;2023-03-31T01:51:06;9.47;;;1.50;;
22963;SDS011;11648;49.306;6.934;2023-03-31T01:53:39;7.87;;;1.63;;
22963;SDS011;11648;49.306;6.934;2023-03-31T01:56:23;5.40;;;1.37;;
22963;SDS011;11648;49.306;6.934;2023-03-31T01:59:05;8.43;;;1.60;;
22963;SDS011;11648;49.306;6.934;2023-03-31T02:04:52;5.87;;;1.30;;
22963;SDS011;11648;49.306;6.934;2023-03-31T02:07:29;7.63;;;1.40;;
22963;SDS011;11648;49.306;6.934;2023-03-31T02:10:01;8.73;;;1.20;;
22963;SDS011;11648;49.306;6.934;2023-03-31T02:12:33;7.97;;;1.20;;
22963;SDS011;11648;49.306;6.934;2023-03-31T02:15:03;9.07;;;1.43;;
22963;SDS011;11648;49.306;6.934;2023-03-31T02:17:35;7.97;;;1.27;;
22963;SDS011;11648;49.306;6.934;2023-03-31T02:20:06;7.13;;;1.40;;
22963;SDS011;11648;49.306;6.934;2023-03-31T02:22:38;8.20;;;1.30;;
22963;SDS011;11648;49.306;6.934;2023-03-31T02:25:07;5.57;;;1.20;;
22963;SDS011;11648;49.306;6.934;2023-03-31T02:27:38;8.73;;;1.20;;
22963;SDS011;11648;49.306;6.934;2023-03-31T02:30:08;9.10;;;1.40;;
22963;SDS011;11648;49.306;6.934;2023-03-31T02:32:37;9.43;;;1.00;;
22963;SDS011;11648;49.306;6.934;2023-03-31T02:35:07;6.97;;;1.03;;
22963;SDS011;11648;49.306;6.934;2023-03-31T02:37:40;6.73;;;1.00;;
22963;SDS011;11648;49.306;6.934;2023-03-31T02:40:20;7.57;;;1.43;;
22963;SDS011;11648;49.306;6.934;2023-03-31T02:42:48;8.63;;;1.40;;
22963;SDS011;11648;49.306;6.934;2023-03-31T02:48:17;7.83;;;1.73;;
22963;SDS011;11648;49.306;6.934;2023-03-31T02:56:28;6.73;;;1.10;;
22963;SDS011;11648;49.306;6.934;2023-03-31T03:07:26;7.73;;;1.50;;
22963;SDS011;11648;49.306;6.934;2023-03-31T03:12:56;7.00;;;1.10;;
22963;SDS011;11648;49.306;6.934;2023-03-31T03:15:39;6.87;;;1.30;;
22963;SDS011;11648;49.306;6.934;2023-03-31T03:18:19;7.00;;;1.17;;
22963;SDS011;11648;49.306;6.934;2023-03-31T03:20:46;7.67;;;1.33;;
22963;SDS011;11648;49.306;6.934;2023-03-31T03:23:15;6.00;;;1.43;;
22963;SDS011;11648;49.306;6.934;2023-03-31T03:25:42;7.23;;;1.60;;
22963;SDS011;11648;49.306;6.934;2023-03-31T03:28:09;7.83;;;1.53;;
22963;SDS011;11648;49.306;6.934;2023-03-31T03:30:36;7.93;;;1.97;;
22963;SDS011;11648;49.306;6.934;2023-03-31T03:33:03;6.37;;;1.57;;
22963;SDS011;11648;49.306;6.934;2023-03-31T03:35:32;6.63;;;1.73;;
22963;SDS011;11648;49.306;6.934;2023-03-31T03:37:59;8.00;;;1.50;;
22963;SDS011;11648;49.306;6.934;2023-03-31T03:40:26;5.63;;;1.80;;
22963;SDS011;11648;49.306;6.934;2023-03-31T03:42:52;9.80;;;1.70;;
22963;SDS011;11648;49.306;6.934;2023-03-31T03:45:19;9.30;;;1.70;;
22963;SDS011;11648;49.306;6.934;2023-03-31T03:47:46;5.17;;;1.83;;
22963;SDS011;11648;49.306;6.934;2023-03-31T03:50:12;6.50;;;1.77;;
22963;SDS011;11648;49.306;6.934;2023-03-31T03:52:41;8.27;;;1.80;;
22963;SDS011;11648;49.306;6.934;2023-03-31T03:55:08;8.97;;;2.07;;
22963;SDS011;11648;49.306;6.934;2023-03-31T03:57:37;8.13;;;2.13;;
22963;SDS011;11648;49.306;6.934;2023-03-31T04:00:04;5.63;;;1.30;;
22963;SDS011;11648;49.306;6.934;2023-03-31T04:02:38;7.00;;;1.50;;
22963;SDS011;11648;49.306;6.934;2023-03-31T04:05:05;8.27;;;1.57;;
22963;SDS011;11648;49.306;6.934;2023-03-31T04:07:32;5.00;;;1.40;;
22963;SDS011;11648;49.306;6.934;2023-03-31T04:09:59;8.33;;;1.63;;
22963;SDS011;11648;49.306;6.934;2023-03-31T04:12:26;10.10;;;2.00;;
22963;SDS011;11648;49.306;6.934;2023-03-31T04:14:52;5.33;;;1.40;;
22963;SDS011;11648;49.306;6.934;2023-03-31T04:17:19;8.17;;;1.70;;
22963;SDS011;11648;49.306;6.934;2023-03-31T04:20:03;8.33;;;1.67;;
22963;SDS011;11648;49.306;6.934;2023-03-31T04:22:34;11.10;;;1.60;;
22963;SDS011;11648;49.306;6.934;2023-03-31T04:25:07;5.33;;;1.60;;
22963;SDS011;11648;49.306;6.934;2023-03-31T04:27:35;7.60;;;1.50;;
22963;SDS011;11648;49.306;6.934;2023-03-31T04:30:02;9.40;;;1.93;;
22963;SDS011;11648;49.306;6.934;2023-03-31T04:32:29;8.53;;;2.20;;
22963;SDS011;11648;49.306;6.934;2023-03-31T04:34:58;7.50;;;2.00;;
22963;SDS011;11648;49.306;6.934;2023-03-31T04:37:31;8.43;;;2.00;;
22963;SDS011;11648;49.306;6.934;2023-03-31T04:40:00;7.50;;;2.10;;
22963;SDS011;11648;49.306;6.934;2023-03-31T04:42:36;10.47;;;2.60;;
22963;SDS011;11648;49.306;6.934;2023-03-31T04:45:02;11.53;;;2.50;;
22963;SDS011;11648;49.306;6.934;2023-03-31T04:47:29;8.37;;;2.40;;
22963;SDS011;11648;49.306;6.934;2023-03-31T04:49:56;8.37;;;2.83;;
22963;SDS011;11648;49.306;6.934;2023-03-31T04:52:23;9.37;;;2.40;;
22963;SDS011;11648;49.306;6.934;2023-03-31T04:54:50;11.60;;;3.47;;
22963;SDS011;11648;49.306;6.934;2023-03-31T04:57:16;6.73;;;2.17;;
22963;SDS011;11648;49.306;6.934;2023-03-31T04:59:43;7.30;;;2.40;;
22963;SDS011;11648;49.306;6.934;2023-03-31T05:02:10;9.13;;;2.90;;
22963;SDS011;11648;49.306;6.934;2023-03-31T05:04:37;10.47;;;3.07;;
22963;SDS011;11648;49.306;6.934;2023-03-31T05:07:04;8.80;;;3.00;;
22963;SDS011;11648;49.306;6.934;2023-03-31T05:09:30;9.13;;;3.10;;
22963;SDS011;11648;49.306;6.934;2023-03-31T05:12:00;10.30;;;3.33;;
22963;SDS011;11648;49.306;6.934;2023-03-31T05:14:26;8.87;;;3.40;;
22963;SDS011;11648;49.306;6.934;2023-03-31T05:16:54;8.07;;;3.50;;
22963;SDS011;11648;49.306;6.934;2023-03-31T05:19:23;10.20;;;3.00;;
22963;SDS011;11648;49.306;6.934;2023-03-31T05:21:50;9.23;;;3.40;;
22963;SDS011;11648;49.306;6.934;2023-03-31T05:24:16;9.60;;;3.70;;
22963;SDS011;11648;49.306;6.934;2023-03-31T05:26:43;8.97;;;3.53;;
22963;SDS011;11648;49.306;6.934;2023-03-31T05:29:18;11.27;;;3.83;;
22963;SDS011;11648;49.306;6.934;2023-03-31T05:31:44;10.40;;;3.80;;
22963;SDS011;11648;49.306;6.934;2023-03-31T05:34:12;9.63;;;3.93;;
22963;SDS011;11648;49.306;6.934;2023-03-31T05:36:39;9.00;;;3.97;;
22963;SDS011;11648;49.306;6.934;2023-03-31T05:39:06;9.90;;;3.97;;
22963;SDS011;11648;49.306;6.934;2023-03-31T05:41:34;11.80;;;4.03;;
22963;SDS011;11648;49.306;6.934;2023-03-31T05:44:00;12.70;;;4.20;;
22963;SDS011;11648;49.306;6.934;2023-03-31T05:46:27;12.50;;;4.53;;
22963;SDS011;11648;49.306;6.934;2023-03-31T05:48:54;7.40;;;4.10;;
22963;SDS011;11648;49.306;6.934;2023-03-31T05:51:22;7.87;;;3.73;;
22963;SDS011;11648;49.306;6.934;2023-03-31T05:53:48;9.30;;;4.50;;
22963;SDS011;11648;49.306;6.934;2023-03-31T05:56:15;11.63;;;4.07;;
22963;SDS011;11648;49.306;6.934;2023-03-31T05:58:42;11.00;;;4.23;;
22963;SDS011;11648;49.306;6.934;2023-03-31T06:01:13;12.40;;;4.53;;
22963;SDS011;11648;49.306;6.934;2023-03-31T06:03:45;10.93;;;4.20;;
22963;SDS011;11648;49.306;6.934;2023-03-31T06:06:12;10.80;;;4.30;;
22963;SDS011;11648;49.306;6.934;2023-03-31T06:08:40;10.63;;;4.57;;
22963;SDS011;11648;49.306;6.934;2023-03-31T06:11:09;12.17;;;4.63;;
22963;SDS011;11648;49.306;6.934;2023-03-31T06:13:38;12.17;;;4.13;;
22963;SDS011;11648;49.306;6.934;2023-03-31T06:16:05;9.50;;;4.00;;
22963;SDS011;11648;49.306;6.934;2023-03-31T06:18:33;10.13;;;4.57;;
22963;SDS011;11648;49.306;6.934;2023-03-31T06:21:02;13.80;;;4.17;;
22963;SDS011;11648;49.306;6.934;2023-03-31T06:23:29;11.20;;;4.33;;
22963;SDS011;11648;49.306;6.934;2023-03-31T06:26:00;10.93;;;4.13;;
22963;SDS011;11648;49.306;6.934;2023-03-31T06:28:29;12.97;;;4.37;;
22963;SDS011;11648;49.306;6.934;2023-03-31T06:31:03;10.40;;;4.43;;
22963;SDS011;11648;49.306;6.934;2023-03-31T06:33:33;12.87;;;4.20;;
22963;SDS011;11648;49.306;6.934;2023-03-31T06:36:00;11.63;;;4.33;;
22963;SDS011;11648;49.306;6.934;2023-03-31T06:38:30;10.53;;;4.27;;
22963;SDS011;11648;49.306;6.934;2023-03-31T06:40:58;12.30;;;4.40;;
22963;SDS011;11648;49.306;6.934;2023-03-31T06:43:25;11.70;;;4.07;;
22963;SDS011;11648;49.306;6.934;2023-03-31T06:45:52;9.53;;;3.33;;
22963;SDS011;11648;49.306;6.934;2023-03-31T06:48:21;8.83;;;3.40;;
22963;SDS011;11648;49.306;6.934;2023-03-31T06:50:48;12.50;;;3.87;;
22963;SDS011;11648;49.306;6.934;2023-03-31T06:53:15;9.63;;;4.20;;
22963;SDS011;11648;49.306;6.934;2023-03-31T06:55:42;11.33;;;3.30;;
22963;SDS011;11648;49.306;6.934;2023-03-31T06:58:09;11.60;;;3.30;;
22963;SDS011;11648;49.306;6.934;2023-03-31T07:00:37;9.73;;;3.40;;
22963;SDS011;11648;49.306;6.934;2023-03-31T07:03:03;12.40;;;3.90;;
22963;SDS011;11648;49.306;6.934;2023-03-31T07:05:32;10.07;;;3.60;;
22963;SDS011;11648;49.306;6.934;2023-03-31T07:07:58;9.80;;;3.27;;
22963;SDS011;11648;49.306;6.934;2023-03-31T07:10:26;12.73;;;3.97;;
22963;SDS011;11648;49.306;6.934;2023-03-31T07:12:55;10.70;;;3.97;;
22963;SDS011;11648;49.306;6.934;2023-03-31T07:15:21;12.80;;;3.93;;
22963;SDS011;11648;49.306;6.934;2023-03-31T07:17:48;12.00;;;3.77;;
22963;SDS011;11648;49.306;6.934;2023-03-31T07:20:19;14.17;;;3.90;;
22963;SDS011;11648;49.306;6.934;2023-03-31T07:22:46;14.43;;;4.13;;
22963;SDS011;11648;49.306;6.934;2023-03-31T07:25:15;10.80;;;3.77;;
22963;SDS011;11648;49.306;6.934;2023-03-31T07:27:42;11.07;;;3.93;;
22963;SDS011;11648;49.306;6.934;2023-03-31T07:30:14;11.80;;;3.77;;
22963;SDS011;11648;49.306;6.934;2023-03-31T07:32:45;13.07;;;3.63;;
22963;SDS011;11648;49.306;6.934;2023-03-31T07:35:12;15.03;;;3.53;;
22963;SDS011;11648;49.306;6.934;2023-03-31T07:37:40;13.83;;;3.50;;
22963;SDS011;11648;49.306;6.934;2023-03-31T07:40:17;9.10;;;3.20;;
22963;SDS011;11648;49.306;6.934;2023-03-31T07:42:47;11.07;;;2.93;;
22963;SDS011;11648;49.306;6.934;2023-03-31T07:45:15;14.87;;;4.00;;
22963;SDS011;11648;49.306;6.934;2023-03-31T07:47:43;13.60;;;3.77;;
22963;SDS011;11648;49.306;6.934;2023-03-31T07:50:12;15.97;;;3.73;;
22963;SDS011;11648;49.306;6.934;2023-03-31T07:52:40;12.23;;;3.13;;
22963;SDS011;11648;49.306;6.934;2023-03-31T07:55:09;15.60;;;3.70;;
22963;SDS011;11648;49.306;6.934;2023-03-31T07:57:36;11.93;;;2.97;;
22963;SDS011;11648;49.306;6.934;2023-03-31T08:00:03;10.17;;;2.40;;
22963;SDS011;11648;49.306;6.934;2023-03-31T08:02:42;11.80;;;2.57;;
22963;SDS011;11648;49.306;6.934;2023-03-31T08:05:10;11.10;;;2.57;;
22963;SDS011;11648;49.306;6.934;2023-03-31T08:07:38;11.30;;;3.03;;
22963;SDS011;11648;49.306;6.934;2023-03-31T08:10:08;17.90;;;3.67;;
22963;SDS011;11648;49.306;6.934;2023-03-31T08:12:37;16.23;;;3.60;;
22963;SDS011;11648;49.306;6.934;2023-03-31T08:15:04;17.80;;;3.67;;
22963;SDS011;11648;49.306;6.934;2023-03-31T08:17:32;16.47;;;3.20;;
22963;SDS011;11648;49.306;6.934;2023-03-31T08:19:58;7.93;;;2.50;;
22963;SDS011;11648;49.306;6.934;2023-03-31T08:22:31;16.17;;;3.03;;
22963;SDS011;11648;49.306;6.934;2023-03-31T08:25:01;15.57;;;2.73;;
22963;SDS011;11648;49.306;6.934;2023-03-31T08:27:36;12.23;;;2.57;;
22963;SDS011;11648;49.306;6.934;2023-03-31T08:30:05;9.37;;;2.20;;
22963;SDS011;11648;49.306;6.934;2023-03-31T08:32:34;10.93;;;2.20;;
22963;SDS011;11648;49.306;6.934;2023-03-31T08:35:01;10.13;;;2.20;;
22963;SDS011;11648;49.306;6.934;2023-03-31T08:37:29;14.50;;;2.50;;
22963;SDS011;11648;49.306;6.934;2023-03-31T08:39:57;11.13;;;2.20;;
22963;SDS011;11648;49.306;6.934;2023-03-31T08:47:55;17.77;;;3.63;;
22963;SDS011;11648;49.306;6.934;2023-03-31T08:50:26;11.87;;;3.50;;
22963;SDS011;11648;49.306;6.934;2023-03-31T08:53:07;12.63;;;2.57;;
22963;SDS011;11648;49.306;6.934;2023-03-31T08:55:48;12.03;;;2.50;;
22963;SDS011;11648;49.306;6.934;2023-03-31T09:03:35;11.90;;;3.10;;
22963;SDS011;11648;49.306;6.934;2023-03-31T09:09:05;13.23;;;2.37;;
22963;SDS011;11648;49.306;6.934;2023-03-31T09:11:52;13.57;;;2.70;;
22963;SDS011;11648;49.306;6.934;2023-03-31T09:22:29;17.10;;;3.10;;
22963;SDS011;11648;49.306;6.934;2023-03-31T09:25:05;15.63;;;3.80;;
22963;SDS011;11648;49.306;6.934;2023-03-31T09:27:38;18.03;;;3.03;;
22963;SDS011;11648;49.306;6.934;2023-03-31T09:30:20;17.53;;;2.70;;
22963;SDS011;11648;49.306;6.934;2023-03-31T09:35:37;18.40;;;3.13;;
22963;SDS011;11648;49.306;6.934;2023-03-31T09:38:04;16.73;;;2.93;;
22963;SDS011;11648;49.306;6.934;2023-03-31T09:40:31;12.40;;;2.70;;
22963;SDS011;11648;49.306;6.934;2023-03-31T09:45:33;17.30;;;3.13;;
22963;SDS011;11648;49.306;6.934;2023-03-31T09:48:02;17.43;;;2.40;;
22963;SDS011;11648;49.306;6.934;2023-03-31T09:50:35;17.17;;;2.50;;
22963;SDS011;11648;49.306;6.934;2023-03-31T09:53:10;17.67;;;2.47;;
22963;SDS011;11648;49.306;6.934;2023-03-31T09:55:44;16.30;;;2.33;;
22963;SDS011;11648;49.306;6.934;2023-03-31T09:58:16;11.13;;;2.70;;
22963;SDS011;11648;49.306;6.934;2023-03-31T10:00:54;12.97;;;2.40;;
22963;SDS011;11648;49.306;6.934;2023-03-31T10:03:24;12.03;;;2.60;;
22963;SDS011;11648;49.306;6.934;2023-03-31T10:05:55;11.93;;;2.17;;
22963;SDS011;11648;49.306;6.934;2023-03-31T10:14:15;11.70;;;2.47;;
22963;SDS011;11648;49.306;6.934;2023-03-31T10:16:28;8.43;;;2.00;;
22963;SDS011;11648;49.306;6.934;2023-03-31T10:19:10;12.33;;;2.27;;
22963;SDS011;11648;49.306;6.934;2023-03-31T10:24:35;9.97;;;1.93;;
22963;SDS011;11648;49.306;6.934;2023-03-31T10:27:04;10.80;;;2.00;;
22963;SDS011;11648;49.306;6.934;2023-03-31T10:29:37;11.40;;;1.73;;
22963;SDS011;11648;49.306;6.934;2023-03-31T10:32:15;10.77;;;1.67;;
22963;SDS011;11648;49.306;6.934;2023-03-31T10:34:48;12.20;;;2.30;;
22963;SDS011;11648;49.306;6.934;2023-03-31T10:37:20;9.50;;;1.70;;
22963;SDS011;11648;49.306;6.934;2023-03-31T10:39:56;13.97;;;2.10;;
22963;SDS011;11648;49.306;6.934;2023-03-31T10:42:25;9.77;;;1.70;;
22963;SDS011;11648;49.306;6.934;2023-03-31T10:45:09;8.03;;;1.80;;
22963;SDS011;11648;49.306;6.934;2023-03-31T10:48:02;6.97;;;1.20;;
22963;SDS011;11648;49.306;6.934;2023-03-31T10:50:33;7.43;;;1.17;;
22963;SDS011;11648;49.306;6.934;2023-03-31T10:53:05;5.00;;;1.03;;
22963;SDS011;11648;49.306;6.934;2023-03-31T10:55:52;5.63;;;1.27;;
22963;SDS011;11648;49.306;6.934;2023-03-31T11:03:41;6.73;;;1.50;;
22963;SDS011;11648;49.306;6.934;2023-03-31T11:09:33;7.03;;;1.50;;
22963;SDS011;11648;49.306;6.934;2023-03-31T11:12:24;5.73;;;1.73;;
22963;SDS011;11648;49.306;6.934;2023-03-31T11:15:09;4.83;;;1.10;;
22963;SDS011;11648;49.306;6.934;2023-03-31T11:17:50;5.83;;;1.23;;
22963;SDS011;11648;49.306;6.934;2023-03-31T11:28:43;3.80;;;0.97;;
22963;SDS011;11648;49.306;6.934;2023-03-31T11:31:50;6.23;;;0.97;;
22963;SDS011;11648;49.306;6.934;2023-03-31T11:37:14;7.07;;;1.63;;
22963;SDS011;11648;49.306;6.934;2023-03-31T11:46:27;7.00;;;1.50;;
22963;SDS011;11648;49.306;6.934;2023-03-31T11:48:59;7.50;;;1.20;;
22963;SDS011;11648;49.306;6.934;2023-03-31T11:51:37;7.47;;;1.30;;
22963;SDS011;11648;49.306;6.934;2023-03-31T11:54:06;7.67;;;1.37;;
22963;SDS011;11648;49.306;6.934;2023-03-31T11:56:43;5.63;;;1.20;;
22963;SDS011;11648;49.306;6.934;2023-03-31T11:59:13;7.43;;;1.40;;
22963;SDS011;11648;49.306;6.934;2023-03-31T12:01:53;8.80;;;1.40;;
22963;SDS011;11648;49.306;6.934;2023-03-31T12:04:38;8.83;;;1.50;;
22963;SDS011;11648;49.306;6.934;2023-03-31T12:10:16;6.87;;;1.10;;
22963;SDS011;11648;49.306;6.934;2023-03-31T12:12:48;8.30;;;1.47;;
22963;SDS011;11648;49.306;6.934;2023-03-31T12:15:24;9.13;;;1.60;;
22963;SDS011;11648;49.306;6.934;2023-03-31T12:17:59;9.33;;;1.73;;
22963;SDS011;11648;49.306;6.934;2023-03-31T12:20:35;8.33;;;1.57;;
22963;SDS011;11648;49.306;6.934;2023-03-31T12:23:14;8.30;;;1.63;;
22963;SDS011;11648;49.306;6.934;2023-03-31T12:28:29;9.70;;;1.70;;
22963;SDS011;11648;49.306;6.934;2023-03-31T12:30:59;9.70;;;1.80;;
22963;SDS011;11648;49.306;6.934;2023-03-31T12:33:29;9.03;;;1.60;;
22963;SDS011;11648;49.306;6.934;2023-03-31T12:56:13;5.37;;;1.00;;
22963;SDS011;11648;49.306;6.934;2023-03-31T12:58:41;4.67;;;1.00;;
22963;SDS011;11648;49.306;6.934;2023-03-31T13:01:14;8.23;;;1.40;;
22963;SDS011;11648;49.306;6.934;2023-03-31T13:09:56;7.70;;;1.50;;
22963;SDS011;11648;49.306;6.934;2023-03-31T13:12:19;6.70;;;1.30;;
22963;SDS011;11648;49.306;6.934;2023-03-31T13:14:48;8.63;;;1.50;;
22963;SDS011;11648;49.306;6.934;2023-03-31T13:19:49;10.33;;;1.87;;
22963;SDS011;11648;49.306;6.934;2023-03-31T13:27:57;11.37;;;1.87;;
22963;SDS011;11648;49.306;6.934;2023-03-31T13:36:29;9.80;;;1.80;;
22963;SDS011;11648;49.306;6.934;2023-03-31T13:53:02;9.47;;;2.00;;
22963;SDS011;11648;49.306;6.934;2023-03-31T14:06:35;6.93;;;1.37;;
22963;SDS011;11648;49.306;6.934;2023-03-31T14:09:07;4.83;;;1.23;;
22963;SDS011;11648;49.306;6.934;2023-03-31T14:11:37;7.00;;;1.40;;
22963;SDS011;11648;49.306;6.934;2023-03-31T14:14:11;6.50;;;1.43;;
22963;SDS011;11648;49.306;6.934;2023-03-31T14:16:49;6.73;;;1.10;;
22963;SDS011;11648;49.306;6.934;2023-03-31T14:21:58;4.50;;;1.00;;
22963;SDS011;11648;49.306;6.934;2023-03-31T14:25:00;5.50;;;1.00;;
22963;SDS011;11648;49.306;6.934;2023-03-31T14:38:27;5.93;;;0.90;;
22963;SDS011;11648;49.306;6.934;2023-03-31T14:40:55;6.17;;;1.23;;
22963;SDS011;11648;49.306;6.934;2023-03-31T14:43:30;7.13;;;1.17;;
22963;SDS011;11648;49.306;6.934;2023-03-31T14:46:03;6.73;;;1.13;;
22963;SDS011;11648;49.306;6.934;2023-03-31T14:48:42;5.80;;;1.23;;
22963;SDS011;11648;49.306;6.934;2023-03-31T14:51:13;7.07;;;1.20;;
22963;SDS011;11648;49.306;6.934;2023-03-31T14:53:41;7.13;;;1.13;;
22963;SDS011;11648;49.306;6.934;2023-03-31T14:56:11;6.33;;;1.00;;
22963;SDS011;11648;49.306;6.934;2023-03-31T14:58:43;4.97;;;1.10;;
22963;SDS011;11648;49.306;6.934;2023-03-31T15:01:16;4.67;;;1.10;;
22963;SDS011;11648;49.306;6.934;2023-03-31T15:03:46;7.23;;;1.30;;
22963;SDS011;11648;49.306;6.934;2023-03-31T15:06:13;5.10;;;1.10;;
22963;SDS011;11648;49.306;6.934;2023-03-31T15:08:41;5.70;;;0.90;;
22963;SDS011;11648;49.306;6.934;2023-03-31T15:11:09;5.50;;;1.17;;
22963;SDS011;11648;49.306;6.934;2023-03-31T15:13:46;5.90;;;1.03;;
22963;SDS011;11648;49.306;6.934;2023-03-31T15:19:11;6.63;;;1.03;;
22963;SDS011;11648;49.306;6.934;2023-03-31T15:21:41;6.27;;;0.80;;
22963;SDS011;11648;49.306;6.934;2023-03-31T15:24:10;6.17;;;1.07;;
22963;SDS011;11648;49.306;6.934;2023-03-31T15:26:44;7.30;;;0.93;;
22963;SDS011;11648;49.306;6.934;2023-03-31T15:29:16;8.77;;;1.40;;
22963;SDS011;11648;49.306;6.934;2023-03-31T15:31:47;4.70;;;0.97;;
22963;SDS011;11648;49.306;6.934;2023-03-31T15:36:54;6.10;;;1.20;;
22963;SDS011;11648;49.306;6.934;2023-03-31T15:39:22;5.00;;;0.90;;
22963;SDS011;11648;49.306;6.934;2023-03-31T15:41:51;7.47;;;0.83;;
22963;SDS011;11648;49.306;6.934;2023-03-31T15:47:10;5.07;;;1.00;;
22963;SDS011;11648;49.306;6.934;2023-03-31T15:50:02;3.10;;;0.90;;
22963;SDS011;11648;49.306;6.934;2023-03-31T15:52:34;5.43;;;1.00;;
22963;SDS011;11648;49.306;6.934;2023-03-31T15:55:23;6.93;;;0.83;;
22963;SDS011;11648;49.306;6.934;2023-03-31T15:57:49;3.77;;;0.70;;
22963;SDS011;11648;49.306;6.934;2023-03-31T16:02:59;3.07;;;0.77;;
22963;SDS011;11648;49.306;6.934;2023-03-31T16:05:38;3.50;;;0.90;;
22963;SDS011;11648;49.306;6.934;2023-03-31T16:08:21;3.37;;;0.70;;
22963;SDS011;11648;49.306;6.934;2023-03-31T16:11:11;2.23;;;0.60;;
22963;SDS011;11648;49.306;6.934;2023-03-31T16:13:44;2.73;;;0.60;;
22963;SDS011;11648;49.306;6.934;2023-03-31T16:16:17;3.63;;;0.80;;
22963;SDS011;11648;49.306;6.934;2023-03-31T16:18:48;2.80;;;0.70;;
22963;SDS011;11648;49.306;6.934;2023-03-31T16:21:23;2.47;;;0.60;;
22963;SDS011;11648;49.306;6.934;2023-03-31T16:23:53;3.27;;;0.70;;
22963;SDS011;11648;49.306;6.934;2023-03-31T16:26:25;2.63;;;0.47;;
22963;SDS011;11648;49.306;6.934;2023-03-31T16:28:53;3.37;;;0.73;;
22963;SDS011;11648;49.306;6.934;2023-03-31T16:31:26;2.37;;;0.60;;
22963;SDS011;11648;49.306;6.934;2023-03-31T16:33:54;4.13;;;0.90;;
22963;SDS011;11648;49.306;6.934;2023-03-31T16:36:22;6.43;;;1.00;;
22963;SDS011;11648;49.306;6.934;2023-03-31T16:38:52;6.43;;;0.87;;
22963;SDS011;11648;49.306;6.934;2023-03-31T16:41:20;5.10;;;1.10;;
22963;SDS011;11648;49.306;6.934;2023-03-31T16:43:49;5.53;;;1.00;;
22963;SDS011;11648;49.306;6.934;2023-03-31T16:46:20;6.83;;;1.17;;
22963;SDS011;11648;49.306;6.934;2023-03-31T16:48:48;4.00;;;0.87;;
22963;SDS011;11648;49.306;6.934;2023-03-31T16:51:15;5.23;;;0.80;;
22963;SDS011;11648;49.306;6.934;2023-03-31T16:53:43;6.77;;;1.40;;
22963;SDS011;11648;49.306;6.934;2023-03-31T16:56:11;6.67;;;1.20;;
22963;SDS011;11648;49.306;6.934;2023-03-31T16:58:39;6.53;;;1.33;;
22963;SDS011;11648;49.306;6.934;2023-03-31T17:01:07;6.07;;;1.60;;
22963;SDS011;11648;49.306;6.934;2023-03-31T17:03:35;7.20;;;1.30;;
22963;SDS011;11648;49.306;6.934;2023-03-31T17:06:04;6.87;;;1.23;;
22963;SDS011;11648;49.306;6.934;2023-03-31T17:08:33;5.80;;;1.20;;
22963;SDS011;11648;49.306;6.934;2023-03-31T17:11:01;8.20;;;1.40;;
22963;SDS011;11648;49.306;6.934;2023-03-31T17:13:30;7.40;;;1.40;;
22963;SDS011;11648;49.306;6.934;2023-03-31T17:15:57;9.40;;;1.80;;
22963;SDS011;11648;49.306;6.934;2023-03-31T17:18:43;9.23;;;1.50;;
22963;SDS011;11648;49.306;6.934;2023-03-31T17:21:10;5.33;;;1.30;;
22963;SDS011;11648;49.306;6.934;2023-03-31T17:23:39;9.03;;;2.00;;
22963;SDS011;11648;49.306;6.934;2023-03-31T17:26:07;6.50;;;1.57;;
22963;SDS011;11648;49.306;6.934;2023-03-31T17:28:36;8.10;;;1.30;;
22963;SDS011;11648;49.306;6.934;2023-03-31T17:31:13;8.40;;;1.20;;
22963;SDS011;11648;49.306;6.934;2023-03-31T17:33:44;6.77;;;1.70;;
22963;SDS011;11648;49.306;6.934;2023-03-31T17:36:12;8.87;;;1.57;;
22963;SDS011;11648;49.306;6.934;2023-03-31T17:38:41;6.83;;;1.70;;
22963;SDS011;11648;49.306;6.934;2023-03-31T17:41:09;9.30;;;1.73;;
22963;SDS011;11648;49.306;6.934;2023-03-31T17:43:38;7.83;;;2.47;;
22963;SDS011;11648;49.306;6.934;2023-03-31T17:46:08;8.40;;;1.20;;
22963;SDS011;11648;49.306;6.934;2023-03-31T17:48:38;9.73;;;1.80;;
22963;SDS011;11648;49.306;6.934;2023-03-31T17:51:06;9.20;;;1.60;;
22963;SDS011;11648;49.306;6.934;2023-03-31T17:53:35;3.93;;;0.90;;
22963;SDS011;11648;49.306;6.934;2023-03-31T17:56:02;3.90;;;0.97;;
22963;SDS011;11648;49.306;6.934;2023-03-31T17:58:30;3.50;;;1.20;;
22963;SDS011;11648;49.306;6.934;2023-03-31T18:00:57;2.43;;;1.00;;
22963;SDS011;11648;49.306;6.934;2023-03-31T18:03:27;5.17;;;1.30;;
22963;SDS011;11648;49.306;6.934;2023-03-31T18:05:54;4.63;;;1.20;;
22963;SDS011;11648;49.306;6.934;2023-03-31T18:08:22;3.03;;;1.00;;
22963;SDS011;11648;49.306;6.934;2023-03-31T18:10:48;3.63;;;0.93;;
22963;SDS011;11648;49.306;6.934;2023-03-31T18:13:15;2.60;;;0.70;;
22963;SDS011;11648;49.306;6.934;2023-03-31T18:15:46;3.20;;;0.60;;
22963;SDS011;11648;49.306;6.934;2023-03-31T18:18:17;4.43;;;1.60;;
22963;SDS011;11648;49.306;6.934;2023-03-31T18:20:44;5.10;;;1.23;;
22963;SDS011;11648;49.306;6.934;2023-03-31T18:23:11;4.40;;;0.90;;
22963;SDS011;11648;49.306;6.934;2023-03-31T18:25:40;3.57;;;0.70;;
22963;SDS011;11648;49.306;6.934;2023-03-31T18:28:09;3.60;;;0.90;;
22963;SDS011;11648;49.306;6.934;2023-03-31T18:30:36;5.17;;;0.93;;